createdAt,value
2018-03-17T00:00:27.602Z,981.73
2018-03-17T00:01:27.627Z,981.74
2018-03-17T00:02:27.654Z,981.72
2018-03-17T00:03:27.681Z,981.72
2018-03-17T00:04:27.707Z,981.70
2018-03-17T00:05:27.735Z,981.65
2018-03-17T00:06:27.763Z,981.73
2018-03-17T00:07:27.791Z,981.68
2018-03-17T00:08:27.818Z,981.68
2018-03-17T00:09:27.844Z,981.72
2018-03-17T00:10:27.913Z,981.70
2018-03-17T00:11:27.896Z,981.68
2018-03-17T00:12:27.925Z,981.64
2018-03-17T00:13:27.953Z,981.62
2018-03-17T00:14:27.980Z,981.59
2018-03-17T00:15:28.007Z,981.60
2018-03-17T00:16:28.035Z,981.55
2018-03-17T00:17:28.070Z,981.55
2018-03-17T00:18:28.088Z,981.52
2018-03-17T00:19:28.114Z,981.51
2018-03-17T00:20:28.142Z,981.52
2018-03-17T00:21:28.170Z,981.54
2018-03-17T00:22:28.195Z,981.53
2018-03-17T00:23:28.223Z,981.53
2018-03-17T00:24:28.257Z,981.55
2018-03-17T00:25:28.279Z,981.51
2018-03-17T00:26:28.305Z,981.51
2018-03-17T00:27:28.331Z,981.55
2018-03-17T00:28:28.358Z,981.54
2018-03-17T00:29:28.386Z,981.49
2018-03-17T00:30:28.412Z,981.48
2018-03-17T00:31:28.439Z,981.45
2018-03-17T00:32:28.466Z,981.43
2018-03-17T00:33:28.494Z,981.50
2018-03-17T00:34:28.523Z,981.47
2018-03-17T00:35:28.548Z,981.42
2018-03-17T00:36:28.574Z,981.45
2018-03-17T00:37:28.601Z,981.42
2018-03-17T00:38:28.628Z,981.42
2018-03-17T00:39:28.654Z,981.41
2018-03-17T00:40:28.684Z,981.40
2018-03-17T00:41:28.709Z,981.39
2018-03-17T00:42:28.739Z,981.41
2018-03-17T00:43:28.765Z,981.40
2018-03-17T00:44:28.790Z,981.40
2018-03-17T00:45:28.819Z,981.39
2018-03-17T00:46:28.844Z,981.39
2018-03-17T00:47:28.871Z,981.44
2018-03-17T00:48:28.898Z,981.38
2018-03-17T00:49:28.924Z,981.39
2018-03-17T00:50:28.951Z,981.38
2018-03-17T00:51:28.980Z,981.39
2018-03-17T00:52:29.005Z,981.33
2018-03-17T00:53:29.031Z,981.37
2018-03-17T00:54:29.059Z,981.36
2018-03-17T00:55:29.086Z,981.30
2018-03-17T00:56:29.112Z,981.29
2018-03-17T00:57:29.170Z,981.29
2018-03-17T00:58:29.166Z,981.29
2018-03-17T00:59:29.193Z,981.25
2018-03-17T01:00:29.220Z,981.30
2018-03-17T01:01:29.247Z,981.30
2018-03-17T01:02:29.274Z,981.28
2018-03-17T01:03:29.300Z,981.28
2018-03-17T01:04:29.328Z,981.27
2018-03-17T01:05:29.355Z,981.27
2018-03-17T01:06:29.381Z,981.22
2018-03-17T01:07:29.408Z,981.24
2018-03-17T01:08:29.436Z,981.21
2018-03-17T01:09:29.463Z,981.17
2018-03-17T01:10:29.490Z,981.20
2018-03-17T01:11:29.517Z,981.19
2018-03-17T01:12:29.542Z,981.16
2018-03-17T01:13:29.570Z,981.14
2018-03-17T01:14:29.597Z,981.19
2018-03-17T01:15:29.622Z,981.17
2018-03-17T01:16:29.649Z,981.13
2018-03-17T01:17:29.677Z,981.14
2018-03-17T01:18:29.704Z,981.13
2018-03-17T01:19:29.730Z,981.08
2018-03-17T01:20:29.757Z,981.08
2018-03-17T01:21:29.785Z,981.02
2018-03-17T01:22:29.811Z,981.04
2018-03-17T01:23:29.837Z,981.00
2018-03-17T01:24:29.863Z,981.06
2018-03-17T01:25:29.891Z,981.05
2018-03-17T01:26:29.920Z,981.04
2018-03-17T01:27:29.944Z,981.05
2018-03-17T01:28:29.970Z,981.04
2018-03-17T01:29:29.997Z,981.07
2018-03-17T01:30:30.025Z,981.00
2018-03-17T01:31:30.051Z,980.98
2018-03-17T01:32:30.078Z,980.98
2018-03-17T01:33:30.105Z,980.96
2018-03-17T01:34:30.132Z,980.95
2018-03-17T01:35:30.160Z,980.93
2018-03-17T01:36:30.185Z,980.90
2018-03-17T01:37:30.212Z,980.86
2018-03-17T01:38:30.240Z,980.88
2018-03-17T01:39:30.267Z,980.87
2018-03-17T01:40:30.293Z,980.86
2018-03-17T01:41:30.319Z,980.80
2018-03-17T01:42:30.347Z,980.82
2018-03-17T01:43:30.373Z,980.78
2018-03-17T01:44:30.400Z,980.79
2018-03-17T01:45:30.426Z,980.78
2018-03-17T01:46:30.453Z,980.72
2018-03-17T01:47:30.480Z,980.72
2018-03-17T01:48:30.511Z,980.69
2018-03-17T01:49:30.534Z,980.67
2018-03-17T01:50:30.562Z,980.65
2018-03-17T01:51:30.588Z,980.60
2018-03-17T01:52:30.614Z,980.51
2018-03-17T01:53:30.642Z,980.54
2018-03-17T01:54:30.669Z,980.63
2018-03-17T01:55:30.694Z,980.54
2018-03-17T01:56:30.722Z,980.54
2018-03-17T01:57:30.749Z,980.51
2018-03-17T01:58:30.776Z,980.54
2018-03-17T01:59:30.802Z,980.56
2018-03-17T02:00:30.830Z,980.50
2018-03-17T02:01:30.859Z,980.49
2018-03-17T02:02:30.883Z,980.48
2018-03-17T02:03:30.912Z,980.48
2018-03-17T02:04:30.936Z,980.48
2018-03-17T02:05:30.962Z,980.47
2018-03-17T02:06:30.989Z,980.45
2018-03-17T02:07:31.016Z,980.45
2018-03-17T02:08:31.043Z,980.47
2018-03-17T02:09:31.075Z,980.47
2018-03-17T02:10:31.098Z,980.44
2018-03-17T02:11:31.122Z,980.46
2018-03-17T02:12:31.150Z,980.46
2018-03-17T02:13:31.176Z,980.42
2018-03-17T02:14:31.202Z,980.46
2018-03-17T02:15:31.228Z,980.43
2018-03-17T02:16:31.256Z,980.44
2018-03-17T02:17:31.281Z,980.40
2018-03-17T02:18:31.310Z,980.40
2018-03-17T02:19:31.335Z,980.39
2018-03-17T02:20:31.362Z,980.35
2018-03-17T02:21:31.387Z,980.39
2018-03-17T02:22:31.418Z,980.37
2018-03-17T02:23:31.441Z,980.39
2018-03-17T02:24:31.468Z,980.33
2018-03-17T02:25:31.495Z,980.31
2018-03-17T02:26:31.521Z,980.38
2018-03-17T02:27:31.548Z,980.39
2018-03-17T02:28:31.574Z,980.39
2018-03-17T02:29:31.601Z,980.40
2018-03-17T02:30:31.628Z,980.34
2018-03-17T02:31:31.661Z,980.31
2018-03-17T02:32:31.680Z,980.34
2018-03-17T02:33:31.709Z,980.31
2018-03-17T02:34:31.737Z,980.27
2018-03-17T02:35:31.769Z,980.29
2018-03-17T02:36:31.787Z,980.23
2018-03-17T02:37:31.813Z,980.26
2018-03-17T02:38:31.842Z,980.24
2018-03-17T02:39:31.866Z,980.24
2018-03-17T02:40:31.894Z,980.24
2018-03-17T02:41:31.926Z,980.24
2018-03-17T02:42:31.948Z,980.21
2018-03-17T02:43:31.975Z,980.20
2018-03-17T02:44:32.000Z,980.19
2018-03-17T02:45:32.026Z,980.19
2018-03-17T02:46:32.055Z,980.19
2018-03-17T02:47:32.077Z,980.18
2018-03-17T02:48:32.110Z,980.15
2018-03-17T02:49:32.131Z,980.12
2018-03-17T02:50:32.157Z,980.11
2018-03-17T02:51:32.182Z,980.10
2018-03-17T02:52:32.267Z,980.02
2018-03-17T02:53:32.239Z,980.05
2018-03-17T02:54:32.263Z,980.05
2018-03-17T02:55:32.288Z,980.02
2018-03-17T02:56:32.316Z,980.06
2018-03-17T02:57:32.344Z,980.06
2018-03-17T02:58:32.369Z,980.02
2018-03-17T02:59:32.394Z,980.01
2018-03-17T03:00:32.422Z,980.06
2018-03-17T03:01:32.449Z,980.01
2018-03-17T03:02:32.477Z,980.03
2018-03-17T03:03:32.499Z,979.96
2018-03-17T03:04:32.528Z,979.90
2018-03-17T03:05:32.554Z,979.93
2018-03-17T03:06:32.580Z,979.90
2018-03-17T03:07:32.609Z,979.86
2018-03-17T03:08:32.633Z,979.86
2018-03-17T03:09:32.660Z,979.90
2018-03-17T03:10:32.688Z,979.90
2018-03-17T03:11:32.713Z,979.92
2018-03-17T03:12:32.739Z,979.94
2018-03-17T03:13:32.765Z,979.90
2018-03-17T03:14:32.792Z,979.93
2018-03-17T03:15:32.818Z,979.94
2018-03-17T03:16:32.850Z,979.93
2018-03-17T03:17:32.873Z,979.93
2018-03-17T03:18:32.897Z,979.92
2018-03-17T03:19:32.923Z,979.94
2018-03-17T03:20:32.950Z,979.92
2018-03-17T03:21:32.977Z,979.93
2018-03-17T03:22:33.002Z,979.90
2018-03-17T03:23:33.028Z,979.85
2018-03-17T03:24:33.056Z,979.92
2018-03-17T03:25:33.084Z,979.87
2018-03-17T03:26:33.110Z,979.87
2018-03-17T03:27:33.135Z,979.88
2018-03-17T03:28:33.169Z,979.85
2018-03-17T03:29:33.190Z,979.85
2018-03-17T03:30:33.217Z,979.85
2018-03-17T03:31:33.244Z,979.84
2018-03-17T03:32:33.269Z,979.80
2018-03-17T03:33:33.295Z,979.84
2018-03-17T03:34:33.322Z,979.80
2018-03-17T03:35:33.348Z,979.77
2018-03-17T03:36:33.375Z,979.80
2018-03-17T03:37:33.401Z,979.79
2018-03-17T03:38:33.428Z,979.80
2018-03-17T03:39:33.455Z,979.76
2018-03-17T03:40:33.481Z,979.75
2018-03-17T03:41:33.508Z,979.80
2018-03-17T03:42:33.537Z,979.78
2018-03-17T03:43:33.561Z,979.80
2018-03-17T03:44:33.588Z,979.77
2018-03-17T03:45:33.614Z,979.79
2018-03-17T03:46:33.641Z,979.76
2018-03-17T03:47:33.669Z,979.72
2018-03-17T03:48:33.693Z,979.79
2018-03-17T03:49:33.721Z,979.76
2018-03-17T03:50:33.746Z,979.74
2018-03-17T03:51:33.772Z,979.73
2018-03-17T03:52:33.798Z,979.73
2018-03-17T03:53:33.825Z,979.69
2018-03-17T03:54:33.852Z,979.73
2018-03-17T03:55:33.878Z,979.65
2018-03-17T03:56:33.908Z,979.71
2018-03-17T03:57:33.931Z,979.68
2018-03-17T03:58:33.958Z,979.67
2018-03-17T03:59:33.987Z,979.70
2018-03-17T04:00:34.010Z,979.67
2018-03-17T04:01:34.038Z,979.65
2018-03-17T04:02:34.063Z,979.66
2018-03-17T04:03:34.092Z,979.65
2018-03-17T04:04:34.117Z,979.61
2018-03-17T04:05:34.143Z,979.61
2018-03-17T04:06:34.170Z,979.62
2018-03-17T04:07:34.196Z,979.56
2018-03-17T04:08:34.223Z,979.59
2018-03-17T04:09:34.250Z,979.56
2018-03-17T04:10:34.276Z,979.55
2018-03-17T04:11:34.304Z,979.53
2018-03-17T04:12:34.329Z,979.51
2018-03-17T04:13:34.357Z,979.53
2018-03-17T04:14:34.383Z,979.55
2018-03-17T04:15:34.417Z,979.51
2018-03-17T04:16:34.436Z,979.53
2018-03-17T04:17:34.463Z,979.55
2018-03-17T04:18:34.490Z,979.55
2018-03-17T04:19:34.514Z,979.54
2018-03-17T04:20:34.542Z,979.53
2018-03-17T04:21:34.568Z,979.52
2018-03-17T04:22:34.595Z,979.57
2018-03-17T04:23:34.621Z,979.53
2018-03-17T04:24:34.648Z,979.53
2018-03-17T04:25:34.675Z,979.57
2018-03-17T04:26:34.700Z,979.55
2018-03-17T04:27:34.730Z,979.58
2018-03-17T04:28:34.755Z,979.60
2018-03-17T04:29:34.785Z,979.58
2018-03-17T04:30:34.808Z,979.54
2018-03-17T04:31:34.833Z,979.52
2018-03-17T04:32:34.859Z,979.53
2018-03-17T04:33:34.887Z,979.52
2018-03-17T04:34:34.920Z,979.51
2018-03-17T04:35:34.940Z,979.49
2018-03-17T04:36:34.968Z,979.51
2018-03-17T04:37:34.994Z,979.53
2018-03-17T04:38:35.022Z,979.50
2018-03-17T04:39:35.046Z,979.52
2018-03-17T04:40:35.073Z,979.49
2018-03-17T04:41:35.100Z,979.51
2018-03-17T04:42:35.128Z,979.52
2018-03-17T04:43:35.153Z,979.49
2018-03-17T04:44:35.180Z,979.51
2018-03-17T04:45:35.206Z,979.51
2018-03-17T04:46:35.235Z,979.56
2018-03-17T04:47:35.259Z,979.53
2018-03-17T04:48:35.288Z,979.52
2018-03-17T04:49:35.315Z,979.53
2018-03-17T04:50:35.343Z,979.52
2018-03-17T04:51:35.366Z,979.51
2018-03-17T04:52:35.396Z,979.44
2018-03-17T04:53:35.421Z,979.46
2018-03-17T04:54:35.448Z,979.48
2018-03-17T04:55:35.474Z,979.50
2018-03-17T04:56:35.500Z,979.51
2018-03-17T04:57:35.527Z,979.55
2018-03-17T04:58:35.555Z,979.49
2018-03-17T04:59:35.580Z,979.42
2018-03-17T05:00:35.608Z,979.44
2018-03-17T05:01:35.635Z,979.45
2018-03-17T05:02:35.661Z,979.46
2018-03-17T05:03:35.688Z,979.46
2018-03-17T05:04:35.714Z,979.37
2018-03-17T05:05:35.742Z,979.42
2018-03-17T05:06:35.768Z,979.40
2018-03-17T05:07:35.793Z,979.41
2018-03-17T05:08:35.822Z,979.40
2018-03-17T05:09:35.849Z,979.37
2018-03-17T05:10:35.878Z,979.40
2018-03-17T05:11:35.901Z,979.39
2018-03-17T05:12:35.928Z,979.43
2018-03-17T05:13:35.956Z,979.41
2018-03-17T05:14:35.991Z,979.40
2018-03-17T05:15:36.009Z,979.36
2018-03-17T05:16:36.036Z,979.37
2018-03-17T05:17:36.063Z,979.34
2018-03-17T05:18:36.091Z,979.37
2018-03-17T05:19:36.117Z,979.32
2018-03-17T05:20:36.144Z,979.33
2018-03-17T05:21:36.171Z,979.29
2018-03-17T05:22:36.199Z,979.26
2018-03-17T05:23:36.225Z,979.26
2018-03-17T05:24:36.251Z,979.22
2018-03-17T05:25:36.279Z,979.20
2018-03-17T05:26:36.307Z,979.20
2018-03-17T05:27:36.330Z,979.18
2018-03-17T05:28:36.358Z,979.17
2018-03-17T05:29:36.385Z,979.19
2018-03-17T05:30:36.414Z,979.17
2018-03-17T05:31:36.439Z,979.15
2018-03-17T05:32:36.467Z,979.13
2018-03-17T05:33:36.493Z,979.15
2018-03-17T05:34:36.521Z,979.12
2018-03-17T05:35:36.548Z,979.16
2018-03-17T05:36:36.575Z,979.18
2018-03-17T05:37:36.602Z,979.15
2018-03-17T05:38:36.632Z,979.15
2018-03-17T05:39:36.656Z,979.11
2018-03-17T05:40:36.682Z,979.14
2018-03-17T05:41:36.710Z,979.14
2018-03-17T05:42:36.738Z,979.14
2018-03-17T05:43:36.763Z,979.16
2018-03-17T05:44:36.790Z,979.18
2018-03-17T05:45:36.818Z,979.14
2018-03-17T05:46:36.843Z,979.15
2018-03-17T05:47:36.870Z,979.13
2018-03-17T05:48:36.898Z,979.14
2018-03-17T05:49:36.925Z,979.10
2018-03-17T05:50:36.952Z,979.13
2018-03-17T05:51:36.979Z,979.12
2018-03-17T05:52:37.007Z,979.09
2018-03-17T05:53:37.033Z,979.10
2018-03-17T05:54:37.060Z,979.14
2018-03-17T05:55:37.087Z,979.07
2018-03-17T05:56:37.115Z,979.12
2018-03-17T05:57:37.141Z,979.12
2018-03-17T05:58:37.229Z,979.12
2018-03-17T05:59:37.196Z,979.06
2018-03-17T06:00:37.222Z,978.99
2018-03-17T06:01:37.248Z,979.02
2018-03-17T06:02:37.279Z,979.05
2018-03-17T06:03:37.305Z,979.04
2018-03-17T06:04:37.330Z,979.01
2018-03-17T06:05:37.357Z,979.05
2018-03-17T06:06:37.385Z,979.03
2018-03-17T06:07:37.411Z,979.02
2018-03-17T06:08:37.437Z,979.06
2018-03-17T06:09:37.465Z,979.05
2018-03-17T06:10:37.493Z,979.08
2018-03-17T06:11:37.522Z,979.03
2018-03-17T06:12:37.546Z,979.06
2018-03-17T06:13:37.574Z,979.06
2018-03-17T06:14:37.602Z,978.98
2018-03-17T06:15:37.628Z,979.00
2018-03-17T06:16:37.659Z,978.98
2018-03-17T06:17:37.683Z,979.01
2018-03-17T06:18:37.711Z,979.02
2018-03-17T06:19:37.737Z,978.99
2018-03-17T06:20:37.765Z,979.02
2018-03-17T06:21:37.793Z,979.04
2018-03-17T06:22:37.820Z,979.00
2018-03-17T06:23:37.847Z,978.97
2018-03-17T06:24:37.873Z,978.97
2018-03-17T06:25:37.901Z,978.95
2018-03-17T06:26:37.928Z,978.97
2018-03-17T06:27:37.956Z,978.96
2018-03-17T06:28:37.986Z,979.03
2018-03-17T06:29:38.012Z,978.95
2018-03-17T06:30:38.040Z,978.96
2018-03-17T06:31:38.067Z,978.98
2018-03-17T06:32:38.095Z,978.99
2018-03-17T06:33:38.123Z,979.01
2018-03-17T06:34:38.150Z,979.01
2018-03-17T06:35:38.178Z,979.03
2018-03-17T06:36:38.210Z,978.96
2018-03-17T06:37:38.235Z,978.95
2018-03-17T06:38:38.261Z,978.98
2018-03-17T06:39:38.288Z,978.95
2018-03-17T06:40:38.316Z,978.94
2018-03-17T06:41:38.344Z,978.93
2018-03-17T06:42:38.371Z,978.89
2018-03-17T06:43:38.398Z,978.90
2018-03-17T06:44:38.426Z,978.88
2018-03-17T06:45:38.454Z,978.82
2018-03-17T06:46:38.482Z,978.86
2018-03-17T06:47:38.509Z,978.86
2018-03-17T06:48:38.538Z,978.87
2018-03-17T06:49:38.565Z,978.87
2018-03-17T06:50:38.593Z,978.84
2018-03-17T06:51:38.620Z,978.87
2018-03-17T06:52:38.648Z,978.75
2018-03-17T06:53:38.676Z,978.82
2018-03-17T06:54:39.004Z,978.81
2018-03-17T06:55:38.760Z,978.79
2018-03-17T06:56:38.790Z,978.79
2018-03-17T06:57:38.808Z,978.77
2018-03-17T06:58:38.842Z,978.77
2018-03-17T06:59:38.843Z,978.75
2018-03-17T07:00:38.931Z,978.73
2018-03-17T07:01:38.900Z,978.74
2018-03-17T07:02:38.929Z,978.71
2018-03-17T07:03:38.961Z,978.73
2018-03-17T07:04:38.985Z,978.71
2018-03-17T07:05:39.012Z,978.69
2018-03-17T07:06:39.042Z,978.71
2018-03-17T07:07:39.069Z,978.68
2018-03-17T07:08:39.097Z,978.68
2018-03-17T07:09:39.126Z,978.69
2018-03-17T07:10:39.154Z,978.64
2018-03-17T07:11:39.181Z,978.65
2018-03-17T07:12:39.210Z,978.64
2018-03-17T07:13:39.240Z,978.65
2018-03-17T07:14:39.273Z,978.66
2018-03-17T07:15:39.294Z,978.63
2018-03-17T07:16:39.322Z,978.64
2018-03-17T07:17:39.351Z,978.65
2018-03-17T07:18:39.380Z,978.66
2018-03-17T07:19:39.408Z,978.65
2018-03-17T07:20:39.436Z,978.67
2018-03-17T07:21:39.464Z,978.65
2018-03-17T07:22:39.493Z,978.67
2018-03-17T07:23:39.521Z,978.63
2018-03-17T07:24:39.549Z,978.64
2018-03-17T07:25:39.577Z,978.64
2018-03-17T07:26:39.606Z,978.65
2018-03-17T07:27:39.634Z,978.63
2018-03-17T07:28:39.662Z,978.65
2018-03-17T07:29:39.691Z,978.64
2018-03-17T07:30:39.719Z,978.65
2018-03-17T07:31:39.747Z,978.60
2018-03-17T07:32:39.774Z,978.56
2018-03-17T07:33:39.802Z,978.56
2018-03-17T07:34:39.834Z,978.59
2018-03-17T07:35:39.863Z,978.57
2018-03-17T07:36:39.898Z,978.54
2018-03-17T07:37:39.917Z,978.59
2018-03-17T07:38:39.946Z,978.57
2018-03-17T07:39:39.975Z,978.58
2018-03-17T07:40:40.006Z,978.56
2018-03-17T07:41:40.032Z,978.54
2018-03-17T07:42:40.061Z,978.52
2018-03-17T07:43:40.089Z,978.50
2018-03-17T07:44:40.116Z,978.49
2018-03-17T07:45:40.147Z,978.53
2018-03-17T07:46:40.175Z,978.48
2018-03-17T07:47:40.203Z,978.50
2018-03-17T07:48:40.234Z,978.49
2018-03-17T07:49:40.262Z,978.46
2018-03-17T07:50:40.291Z,978.47
2018-03-17T07:51:40.319Z,978.43
2018-03-17T07:52:40.348Z,978.47
2018-03-17T07:53:40.377Z,978.42
2018-03-17T07:54:40.406Z,978.45
2018-03-17T07:55:40.435Z,978.40
2018-03-17T07:56:40.464Z,978.41
2018-03-17T07:57:40.493Z,978.44
2018-03-17T07:58:40.528Z,978.39
2018-03-17T07:59:40.551Z,978.42
2018-03-17T08:00:40.581Z,978.38
2018-03-17T08:01:40.611Z,978.35
2018-03-17T08:02:40.640Z,978.35
2018-03-17T08:03:40.669Z,978.30
2018-03-17T08:04:40.698Z,978.31
2018-03-17T08:05:40.728Z,978.32
2018-03-17T08:06:40.757Z,978.36
2018-03-17T08:07:40.786Z,978.33
2018-03-17T08:08:40.816Z,978.33
2018-03-17T08:09:40.846Z,978.35
2018-03-17T08:10:40.874Z,978.36
2018-03-17T08:11:40.903Z,978.38
2018-03-17T08:12:40.932Z,978.38
2018-03-17T08:13:40.962Z,978.36
2018-03-17T08:14:40.993Z,978.34
2018-03-17T08:15:41.021Z,978.36
2018-03-17T08:16:41.052Z,978.37
2018-03-17T08:17:41.080Z,978.32
2018-03-17T08:18:41.109Z,978.29
2018-03-17T08:19:41.138Z,978.26
2018-03-17T08:20:41.168Z,978.26
2018-03-17T08:21:41.199Z,978.28
2018-03-17T08:22:41.228Z,978.27
2018-03-17T08:23:41.256Z,978.23
2018-03-17T08:24:41.284Z,978.29
2018-03-17T08:25:41.315Z,978.20
2018-03-17T08:26:41.344Z,978.18
2018-03-17T08:27:41.378Z,978.23
2018-03-17T08:28:41.402Z,978.15
2018-03-17T08:29:41.432Z,978.18
2018-03-17T08:30:41.461Z,978.19
2018-03-17T08:31:41.491Z,978.13
2018-03-17T08:32:41.521Z,978.15
2018-03-17T08:33:41.550Z,978.18
2018-03-17T08:34:41.578Z,978.15
2018-03-17T08:35:41.607Z,978.15
2018-03-17T08:36:41.635Z,978.12
2018-03-17T08:37:41.668Z,978.14
2018-03-17T08:38:41.696Z,978.13
2018-03-17T08:39:41.724Z,978.14
2018-03-17T08:40:41.753Z,978.14
2018-03-17T08:41:41.782Z,978.12
2018-03-17T08:42:41.811Z,978.13
2018-03-17T08:43:41.840Z,978.10
2018-03-17T08:44:41.870Z,978.12
2018-03-17T08:45:41.900Z,978.10
2018-03-17T08:46:41.928Z,978.06
2018-03-17T08:47:41.958Z,978.10
2018-03-17T08:48:41.986Z,978.12
2018-03-17T08:49:42.016Z,978.06
2018-03-17T08:50:42.044Z,978.09
2018-03-17T08:51:42.074Z,978.06
2018-03-17T08:52:42.105Z,978.09
2018-03-17T08:53:42.133Z,978.05
2018-03-17T08:54:42.163Z,978.04
2018-03-17T08:55:42.191Z,978.05
2018-03-17T08:56:42.220Z,978.08
2018-03-17T08:57:42.251Z,978.06
2018-03-17T08:58:42.334Z,978.05
2018-03-17T08:59:42.306Z,978.07
2018-03-17T09:00:42.337Z,978.09
2018-03-17T09:01:42.366Z,978.09
2018-03-17T09:02:42.396Z,978.14
2018-03-17T09:03:42.425Z,978.06
2018-03-17T09:04:42.452Z,978.06
2018-03-17T09:05:42.483Z,978.07
2018-03-17T09:06:42.512Z,978.07
2018-03-17T09:07:42.541Z,978.11
2018-03-17T09:08:42.569Z,978.05
2018-03-17T09:09:42.601Z,978.07
2018-03-17T09:10:42.655Z,978.03
2018-03-17T09:11:42.658Z,978.03
2018-03-17T09:12:42.702Z,978.00
2018-03-17T09:13:42.726Z,977.97
2018-03-17T09:14:42.748Z,977.96
2018-03-17T09:15:42.777Z,977.92
2018-03-17T09:16:42.807Z,977.93
2018-03-17T09:17:42.836Z,977.92
2018-03-17T09:18:42.866Z,977.92
2018-03-17T09:19:42.896Z,977.92
2018-03-17T09:20:42.925Z,977.93
2018-03-17T09:21:42.956Z,977.89
2018-03-17T09:22:42.985Z,977.88
2018-03-17T09:23:43.016Z,977.87
2018-03-17T09:24:43.046Z,977.86
2018-03-17T09:25:43.075Z,977.83
2018-03-17T09:26:43.106Z,977.83
2018-03-17T09:27:43.137Z,977.83
2018-03-17T09:28:43.171Z,977.79
2018-03-17T09:29:43.197Z,977.80
2018-03-17T09:30:43.227Z,977.79
2018-03-17T09:31:43.255Z,977.76
2018-03-17T09:32:43.285Z,977.79
2018-03-17T09:33:43.316Z,977.80
2018-03-17T09:34:43.347Z,977.71
2018-03-17T09:35:43.375Z,977.75
2018-03-17T09:36:43.404Z,977.75
2018-03-17T09:37:43.435Z,977.76
2018-03-17T09:38:43.465Z,977.74
2018-03-17T09:39:43.496Z,977.76
2018-03-17T09:40:43.524Z,977.69
2018-03-17T09:41:43.560Z,977.71
2018-03-17T09:42:43.584Z,977.62
2018-03-17T09:43:43.613Z,977.69
2018-03-17T09:44:43.643Z,977.63
2018-03-17T09:45:43.674Z,977.65
2018-03-17T09:46:43.704Z,977.61
2018-03-17T09:47:43.737Z,977.59
2018-03-17T09:48:43.762Z,977.59
2018-03-17T09:49:43.792Z,977.59
2018-03-17T09:50:43.823Z,977.62
2018-03-17T09:51:43.851Z,977.67
2018-03-17T09:52:43.883Z,977.62
2018-03-17T09:53:43.913Z,977.65
2018-03-17T09:54:43.943Z,977.66
2018-03-17T09:55:43.971Z,977.67
2018-03-17T09:56:44.000Z,977.68
2018-03-17T09:57:44.031Z,977.62
2018-03-17T09:58:44.060Z,977.61
2018-03-17T09:59:44.725Z,977.64
2018-03-17T10:00:44.119Z,977.63
2018-03-17T10:01:44.149Z,977.56
2018-03-17T10:02:44.179Z,977.67
2018-03-17T10:03:44.206Z,977.64
2018-03-17T10:04:44.238Z,977.62
2018-03-17T10:05:44.268Z,977.62
2018-03-17T10:06:44.297Z,977.63
2018-03-17T10:07:44.327Z,977.60
2018-03-17T10:08:44.356Z,977.60
2018-03-17T10:09:44.386Z,977.56
2018-03-17T10:10:44.416Z,977.47
2018-03-17T10:11:44.445Z,977.52
2018-03-17T10:12:44.477Z,977.49
2018-03-17T10:13:44.506Z,977.55
2018-03-17T10:14:44.535Z,977.49
2018-03-17T10:15:44.564Z,977.51
2018-03-17T10:16:44.594Z,977.56
2018-03-17T10:17:44.624Z,977.56
2018-03-17T10:18:44.653Z,977.44
2018-03-17T10:19:44.683Z,977.55
2018-03-17T10:20:44.713Z,977.51
2018-03-17T10:21:44.741Z,977.52
2018-03-17T10:22:44.772Z,977.50
2018-03-17T10:23:44.800Z,977.47
2018-03-17T10:24:44.831Z,977.46
2018-03-17T10:25:44.862Z,977.49
2018-03-17T10:26:44.890Z,977.42
2018-03-17T10:27:44.919Z,977.42
2018-03-17T10:28:44.949Z,977.44
2018-03-17T10:29:44.979Z,977.41
2018-03-17T10:30:45.008Z,977.36
2018-03-17T10:31:45.038Z,977.32
2018-03-17T10:32:45.067Z,977.37
2018-03-17T10:33:45.119Z,977.36
2018-03-17T10:34:45.128Z,977.37
2018-03-17T10:35:45.156Z,977.36
2018-03-17T10:36:45.186Z,977.34
2018-03-17T10:37:45.216Z,977.31
2018-03-17T10:38:45.245Z,977.35
2018-03-17T10:39:45.296Z,977.40
2018-03-17T10:40:45.311Z,977.35
2018-03-17T10:41:45.335Z,977.39
2018-03-17T10:42:45.365Z,977.36
2018-03-17T10:43:45.400Z,977.36
2018-03-17T10:44:45.425Z,977.30
2018-03-17T10:45:45.457Z,977.31
2018-03-17T10:46:45.484Z,977.32
2018-03-17T10:47:45.559Z,977.30
2018-03-17T10:48:45.544Z,977.29
2018-03-17T10:49:45.581Z,977.29
2018-03-17T10:50:45.604Z,977.29
2018-03-17T10:51:45.635Z,977.26
2018-03-17T10:52:45.666Z,977.29
2018-03-17T10:53:45.694Z,977.25
2018-03-17T10:54:45.724Z,977.28
2018-03-17T10:55:45.755Z,977.24
2018-03-17T10:56:45.785Z,977.21
2018-03-17T10:57:45.815Z,977.21
2018-03-17T10:58:45.857Z,977.21
2018-03-17T10:59:45.876Z,977.17
2018-03-17T11:00:45.905Z,977.20
2018-03-17T11:01:45.936Z,977.17
2018-03-17T11:02:45.966Z,977.20
2018-03-17T11:03:45.995Z,977.24
2018-03-17T11:04:46.026Z,977.16
2018-03-17T11:05:46.057Z,977.25
2018-03-17T11:06:46.088Z,977.23
2018-03-17T11:07:46.117Z,977.22
2018-03-17T11:08:46.148Z,977.24
2018-03-17T11:09:46.182Z,977.26
2018-03-17T11:10:46.210Z,977.31
2018-03-17T11:11:46.239Z,977.26
2018-03-17T11:12:46.269Z,977.26
2018-03-17T11:13:46.302Z,977.27
2018-03-17T11:14:46.330Z,977.25
2018-03-17T11:15:46.360Z,977.25
2018-03-17T11:16:46.390Z,977.25
2018-03-17T11:17:46.421Z,977.24
2018-03-17T11:18:46.451Z,977.28
2018-03-17T11:19:46.481Z,977.27
2018-03-17T11:20:46.511Z,977.23
2018-03-17T11:21:46.547Z,977.22
2018-03-17T11:22:46.573Z,977.24
2018-03-17T11:23:46.604Z,977.22
2018-03-17T11:24:46.631Z,977.26
2018-03-17T11:25:46.662Z,977.28
2018-03-17T11:26:46.697Z,977.26
2018-03-17T11:27:46.724Z,977.24
2018-03-17T11:28:46.757Z,977.26
2018-03-17T11:29:46.784Z,977.27
2018-03-17T11:30:46.814Z,977.26
2018-03-17T11:31:46.844Z,977.22
2018-03-17T11:32:46.874Z,977.20
2018-03-17T11:33:46.952Z,977.20
2018-03-17T11:34:46.935Z,977.16
2018-03-17T11:35:46.964Z,977.19
2018-03-17T11:36:46.994Z,977.12
2018-03-17T11:37:47.024Z,977.17
2018-03-17T11:38:47.055Z,977.13
2018-03-17T11:39:47.085Z,977.15
2018-03-17T11:40:47.115Z,977.16
2018-03-17T11:41:47.146Z,977.11
2018-03-17T11:42:47.176Z,977.19
2018-03-17T11:43:47.206Z,977.11
2018-03-17T11:44:47.236Z,977.13
2018-03-17T11:45:47.267Z,977.13
2018-03-17T11:46:47.295Z,977.11
2018-03-17T11:47:47.325Z,977.08
2018-03-17T11:48:47.356Z,977.10
2018-03-17T11:49:47.387Z,977.05
2018-03-17T11:50:47.417Z,977.08
2018-03-17T11:51:47.448Z,977.04
2018-03-17T11:52:47.478Z,977.01
2018-03-17T11:53:47.507Z,976.99
2018-03-17T11:54:47.538Z,977.00
2018-03-17T11:55:47.567Z,977.02
2018-03-17T11:56:47.598Z,976.99
2018-03-17T11:57:47.628Z,976.93
2018-03-17T11:58:47.658Z,976.94
2018-03-17T11:59:47.686Z,976.91
2018-03-17T12:00:47.717Z,976.91
2018-03-17T12:01:47.750Z,976.88
2018-03-17T12:02:47.793Z,976.93
2018-03-17T12:03:47.807Z,976.94
2018-03-17T12:04:47.837Z,976.92
2018-03-17T12:05:47.867Z,976.94
2018-03-17T12:06:47.901Z,976.86
2018-03-17T12:07:47.928Z,976.86
2018-03-17T12:08:47.957Z,976.83
2018-03-17T12:09:47.988Z,976.87
2018-03-17T12:10:48.017Z,976.82
2018-03-17T12:11:48.047Z,976.85
2018-03-17T12:12:48.081Z,976.85
2018-03-17T12:13:48.106Z,976.85
2018-03-17T12:14:48.137Z,976.85
2018-03-17T12:15:48.165Z,976.84
2018-03-17T12:16:48.195Z,976.74
2018-03-17T12:17:48.226Z,976.85
2018-03-17T12:18:48.256Z,976.78
2018-03-17T12:19:48.285Z,976.77
2018-03-17T12:20:48.320Z,976.77
2018-03-17T12:21:48.343Z,976.75
2018-03-17T12:22:48.373Z,976.70
2018-03-17T12:23:48.403Z,976.75
2018-03-17T12:24:48.433Z,976.71
2018-03-17T12:25:48.464Z,976.75
2018-03-17T12:26:48.494Z,976.68
2018-03-17T12:27:48.523Z,976.70
2018-03-17T12:28:48.552Z,976.74